sensor_id;sensor_type;location;lat;lon;timestamp;pressure;altitude;pressure_sealevel;temperature;humidity
2397;BME280;1209;48.410;9.054;2023-02-28T00:02:24;96714.16;;;-1.96;100.00
2397;BME280;1209;48.410;9.054;2023-02-28T00:04:49;96712.34;;;-1.94;100.00
2397;BME280;1209;48.410;9.054;2023-02-28T00:07:18;96714.81;;;-1.93;100.00
2397;BME280;1209;48.410;9.054;2023-02-28T00:09:43;96718.38;;;-1.95;100.00
2397;BME280;1209;48.410;9.054;2023-02-28T00:12:09;96703.75;;;-1.93;100.00
2397;BME280;1209;48.410;9.054;2023-02-28T00:14:36;96714.44;;;-2.01;100.00
2397;BME280;1209;48.410;9.054;2023-02-28T00:17:01;96715.44;;;-2.03;100.00
2397;BME280;1209;48.410;9.054;2023-02-28T00:19:26;96709.78;;;-1.94;100.00
2397;BME280;1209;48.410;9.054;2023-02-28T00:21:52;96716.16;;;-2.01;100.00
2397;BME280;1209;48.410;9.054;2023-02-28T00:24:17;96717.00;;;-2.01;100.00
2397;BME280;1209;48.410;9.054;2023-02-28T00:26:42;96707.75;;;-2.03;100.00
2397;BME280;1209;48.410;9.054;2023-02-28T00:29:07;96708.66;;;-2.04;100.00
2397;BME280;1209;48.410;9.054;2023-02-28T00:31:33;96717.25;;;-2.05;100.00
2397;BME280;1209;48.410;9.054;2023-02-28T00:33:58;96714.44;;;-2.01;100.00
2397;BME280;1209;48.410;9.054;2023-02-28T00:36:23;96712.97;;;-2.05;100.00
2397;BME280;1209;48.410;9.054;2023-02-28T00:38:49;96706.53;;;-2.12;100.00
2397;BME280;1209;48.410;9.054;2023-02-28T00:41:14;96711.47;;;-2.09;100.00
2397;BME280;1209;48.410;9.054;2023-02-28T00:43:39;96702.06;;;-2.08;100.00
2397;BME280;1209;48.410;9.054;2023-02-28T00:46:05;96710.50;;;-2.06;100.00
2397;BME280;1209;48.410;9.054;2023-02-28T00:48:31;96705.47;;;-2.08;100.00
2397;BME280;1209;48.410;9.054;2023-02-28T00:50:56;96707.28;;;-2.10;100.00
2397;BME280;1209;48.410;9.054;2023-02-28T00:53:21;96700.03;;;-2.17;100.00
2397;BME280;1209;48.410;9.054;2023-02-28T00:55:48;96700.44;;;-2.09;100.00
2397;BME280;1209;48.410;9.054;2023-02-28T00:58:13;96700.50;;;-2.11;100.00
2397;BME280;1209;48.410;9.054;2023-02-28T01:00:38;96704.59;;;-2.23;100.00
2397;BME280;1209;48.410;9.054;2023-02-28T01:03:04;96710.34;;;-2.19;100.00
2397;BME280;1209;48.410;9.054;2023-02-28T01:05:29;96712.00;;;-2.18;100.00
2397;BME280;1209;48.410;9.054;2023-02-28T01:07:54;96710.28;;;-2.17;100.00
2397;BME280;1209;48.410;9.054;2023-02-28T01:10:19;96704.97;;;-2.14;100.00
2397;BME280;1209;48.410;9.054;2023-02-28T01:12:45;96703.69;;;-2.22;100.00
2397;BME280;1209;48.410;9.054;2023-02-28T01:15:11;96700.38;;;-2.24;100.00
2397;BME280;1209;48.410;9.054;2023-02-28T01:17:36;96704.69;;;-2.24;100.00
2397;BME280;1209;48.410;9.054;2023-02-28T01:20:02;96701.28;;;-2.25;100.00
2397;BME280;1209;48.410;9.054;2023-02-28T01:22:28;96700.22;;;-2.20;100.00
2397;BME280;1209;48.410;9.054;2023-02-28T01:24:53;96698.56;;;-2.22;100.00
2397;BME280;1209;48.410;9.054;2023-02-28T01:27:19;96698.81;;;-2.26;100.00
2397;BME280;1209;48.410;9.054;2023-02-28T01:29:44;96706.31;;;-2.23;100.00
2397;BME280;1209;48.410;9.054;2023-02-28T01:32:09;96701.22;;;-2.23;100.00
2397;BME280;1209;48.410;9.054;2023-02-28T01:34:35;96697.53;;;-2.33;100.00
2397;BME280;1209;48.410;9.054;2023-02-28T01:37:00;96693.97;;;-2.31;100.00
2397;BME280;1209;48.410;9.054;2023-02-28T01:39:26;96690.66;;;-2.33;100.00
2397;BME280;1209;48.410;9.054;2023-02-28T01:41:51;96693.06;;;-2.30;100.00
2397;BME280;1209;48.410;9.054;2023-02-28T01:47:20;96695.78;;;-2.33;100.00
2397;BME280;1209;48.410;9.054;2023-02-28T01:49:47;96682.56;;;-2.25;100.00
2397;BME280;1209;48.410;9.054;2023-02-28T01:52:14;96688.03;;;-2.31;100.00
2397;BME280;1209;48.410;9.054;2023-02-28T01:54:46;96685.72;;;-2.36;100.00
2397;BME280;1209;48.410;9.054;2023-02-28T01:57:17;96675.63;;;-2.39;100.00
2397;BME280;1209;48.410;9.054;2023-02-28T01:59:46;96672.19;;;-2.38;100.00
2397;BME280;1209;48.410;9.054;2023-02-28T02:02:17;96675.63;;;-2.39;100.00
2397;BME280;1209;48.410;9.054;2023-02-28T02:05:01;96675.97;;;-2.45;100.00
2397;BME280;1209;48.410;9.054;2023-02-28T02:07:31;96672.47;;;-2.58;100.00
2397;BME280;1209;48.410;9.054;2023-02-28T02:10:11;96674.75;;;-2.54;100.00
2397;BME280;1209;48.410;9.054;2023-02-28T02:15:39;96667.44;;;-2.60;100.00
2397;BME280;1209;48.410;9.054;2023-02-28T02:38:19;96670.97;;;-2.62;100.00
2397;BME280;1209;48.410;9.054;2023-02-28T02:43:39;96670.91;;;-2.61;100.00
2397;BME280;1209;48.410;9.054;2023-02-28T02:46:10;96668.34;;;-2.61;100.00
2397;BME280;1209;48.410;9.054;2023-02-28T02:48:40;96672.38;;;-2.57;100.00
2397;BME280;1209;48.410;9.054;2023-02-28T02:51:11;96672.94;;;-2.51;100.00
2397;BME280;1209;48.410;9.054;2023-02-28T02:53:44;96678.41;;;-2.58;100.00
2397;BME280;1209;48.410;9.054;2023-02-28T02:56:13;96677.88;;;-2.48;100.00
2397;BME280;1209;48.410;9.054;2023-02-28T02:58:41;96679.72;;;-2.50;100.00
2397;BME280;1209;48.410;9.054;2023-02-28T03:01:14;96682.44;;;-2.54;100.00
2397;BME280;1209;48.410;9.054;2023-02-28T03:03:41;96681.88;;;-2.59;100.00
2397;BME280;1209;48.410;9.054;2023-02-28T03:06:07;96683.34;;;-2.55;100.00
2397;BME280;1209;48.410;9.054;2023-02-28T03:08:35;96675.09;;;-2.60;100.00
2397;BME280;1209;48.410;9.054;2023-02-28T03:11:04;96672.78;;;-2.48;100.00
2397;BME280;1209;48.410;9.054;2023-02-28T03:13:58;96680.03;;;-2.57;100.00
2397;BME280;1209;48.410;9.054;2023-02-28T03:16:52;96677.97;;;-2.50;100.00
2397;BME280;1209;48.410;9.054;2023-02-28T03:25:19;96666.34;;;-2.56;100.00
2397;BME280;1209;48.410;9.054;2023-02-28T03:28:17;96666.66;;;-2.46;100.00
2397;BME280;1209;48.410;9.054;2023-02-28T03:30:42;96665.38;;;-2.53;100.00
2397;BME280;1209;48.410;9.054;2023-02-28T03:33:47;96662.81;;;-2.53;100.00
2397;BME280;1209;48.410;9.054;2023-02-28T03:36:24;96666.34;;;-2.56;100.00
2397;BME280;1209;48.410;9.054;2023-02-28T03:39:21;96670.66;;;-2.56;100.00
2397;BME280;1209;48.410;9.054;2023-02-28T03:42:07;96662.28;;;-2.44;100.00
2397;BME280;1209;48.410;9.054;2023-02-28T03:44:41;96659.44;;;-2.54;100.00
2397;BME280;1209;48.410;9.054;2023-02-28T03:47:12;96668.50;;;-2.48;100.00
2397;BME280;1209;48.410;9.054;2023-02-28T03:49:53;96664.38;;;-2.50;100.00
2397;BME280;1209;48.410;9.054;2023-02-28T03:52:23;96667.44;;;-2.60;100.00
2397;BME280;1209;48.410;9.054;2023-02-28T03:54:55;96667.19;;;-2.55;100.00
2397;BME280;1209;48.410;9.054;2023-02-28T03:57:27;96663.06;;;-2.58;100.00
2397;BME280;1209;48.410;9.054;2023-02-28T04:00:49;96667.66;;;-2.48;100.00
2397;BME280;1209;48.410;9.054;2023-02-28T04:02:48;96665.38;;;-2.53;100.00
2397;BME280;1209;48.410;9.054;2023-02-28T04:05:19;96666.31;;;-2.40;100.00
2397;BME280;1209;48.410;9.054;2023-02-28T04:07:44;96667.00;;;-2.52;100.00
2397;BME280;1209;48.410;9.054;2023-02-28T04:10:11;96664.84;;;-2.44;100.00
2397;BME280;1209;48.410;9.054;2023-02-28T04:12:36;96657.28;;;-2.45;100.00
2397;BME280;1209;48.410;9.054;2023-02-28T04:15:02;96657.44;;;-2.48;100.00
2397;BME280;1209;48.410;9.054;2023-02-28T04:17:27;96657.44;;;-2.48;100.00
2397;BME280;1209;48.410;9.054;2023-02-28T04:19:52;96660.00;;;-2.48;100.00
2397;BME280;1209;48.410;9.054;2023-02-28T04:22:21;96659.25;;;-2.35;100.00
2397;BME280;1209;48.410;9.054;2023-02-28T04:24:46;96662.38;;;-2.45;100.00
2397;BME280;1209;48.410;9.054;2023-02-28T04:27:12;96667.00;;;-2.52;100.00
2397;BME280;1209;48.410;9.054;2023-02-28T04:29:37;96658.34;;;-2.49;100.00
2397;BME280;1209;48.410;9.054;2023-02-28T04:32:03;96661.56;;;-2.46;100.00
2397;BME280;1209;48.410;9.054;2023-02-28T04:34:30;96663.13;;;-2.43;100.00
2397;BME280;1209;48.410;9.054;2023-02-28T04:36:56;96653.97;;;-2.47;100.00
2397;BME280;1209;48.410;9.054;2023-02-28T04:39:22;96651.97;;;-2.42;100.00
2397;BME280;1209;48.410;9.054;2023-02-28T04:41:48;96652.97;;;-2.45;100.00
2397;BME280;1209;48.410;9.054;2023-02-28T04:44:13;96654.88;;;-2.48;100.00
2397;BME280;1209;48.410;9.054;2023-02-28T04:46:39;96656.97;;;-2.55;100.00
2397;BME280;1209;48.410;9.054;2023-02-28T04:49:05;96649.69;;;-2.47;100.00
2397;BME280;1209;48.410;9.054;2023-02-28T04:51:30;96660.16;;;-2.36;100.00
2397;BME280;1209;48.410;9.054;2023-02-28T04:53:56;96661.00;;;-2.35;100.00
2397;BME280;1209;48.410;9.054;2023-02-28T04:56:22;96659.75;;;-2.44;100.00
2397;BME280;1209;48.410;9.054;2023-02-28T04:58:47;96666.59;;;-2.44;100.00
2397;BME280;1209;48.410;9.054;2023-02-28T05:01:19;96667.50;;;-2.45;100.00
2397;BME280;1209;48.410;9.054;2023-02-28T05:03:44;96659.91;;;-2.47;100.00
2397;BME280;1209;48.410;9.054;2023-02-28T05:06:11;96657.91;;;-2.42;100.00
2397;BME280;1209;48.410;9.054;2023-02-28T05:08:36;96667.84;;;-2.51;100.00
2397;BME280;1209;48.410;9.054;2023-02-28T05:11:02;96669.22;;;-2.46;100.00
2397;BME280;1209;48.410;9.054;2023-02-28T05:13:28;96671.88;;;-2.47;100.00
2397;BME280;1209;48.410;9.054;2023-02-28T05:15:54;96675.34;;;-2.48;100.00
2397;BME280;1209;48.410;9.054;2023-02-28T05:18:19;96678.06;;;-2.51;100.00
2397;BME280;1209;48.410;9.054;2023-02-28T05:20:45;96674.09;;;-2.41;100.00
2397;BME280;1209;48.410;9.054;2023-02-28T05:23:12;96670.97;;;-2.46;100.00
2397;BME280;1209;48.410;9.054;2023-02-28T05:25:38;96671.78;;;-2.46;100.00
2397;BME280;1209;48.410;9.054;2023-02-28T05:28:03;96676.25;;;-2.49;100.00
2397;BME280;1209;48.410;9.054;2023-02-28T05:30:29;96668.50;;;-2.48;100.00
2397;BME280;1209;48.410;9.054;2023-02-28T05:32:55;96672.78;;;-2.48;100.00
2397;BME280;1209;48.410;9.054;2023-02-28T05:35:20;96672.25;;;-2.39;100.00
2397;BME280;1209;48.410;9.054;2023-02-28T05:37:45;96673.25;;;-2.42;100.00
2397;BME280;1209;48.410;9.054;2023-02-28T05:40:11;96676.25;;;-2.49;100.00
2397;BME280;1209;48.410;9.054;2023-02-28T05:42:36;96674.72;;;-2.38;100.00
2397;BME280;1209;48.410;9.054;2023-02-28T05:45:03;96666.59;;;-2.44;100.00
2397;BME280;1209;48.410;9.054;2023-02-28T05:47:28;96667.50;;;-2.45;100.00
2397;BME280;1209;48.410;9.054;2023-02-28T05:49:53;96664.44;;;-2.36;100.00
2397;BME280;1209;48.410;9.054;2023-02-28T05:52:19;96666.09;;;-2.35;100.00
2397;BME280;1209;48.410;9.054;2023-02-28T05:54:46;96673.78;;;-2.35;100.00
2397;BME280;1209;48.410;9.054;2023-02-28T05:57:11;96675.97;;;-2.29;100.00
2397;BME280;1209;48.410;9.054;2023-02-28T05:59:36;96670.44;;;-2.37;100.00
2397;BME280;1209;48.410;9.054;2023-02-28T06:02:05;96671.94;;;-2.33;100.00
2397;BME280;1209;48.410;9.054;2023-02-28T06:04:31;96678.78;;;-2.34;100.00
2397;BME280;1209;48.410;9.054;2023-02-28T06:06:56;96683.91;;;-2.34;100.00
2397;BME280;1209;48.410;9.054;2023-02-28T06:09:22;96684.66;;;-2.32;100.00
2397;BME280;1209;48.410;9.054;2023-02-28T06:11:48;96688.94;;;-2.32;100.00
2397;BME280;1209;48.410;9.054;2023-02-28T06:14:17;96690.41;;;-2.28;100.00
2397;BME280;1209;48.410;9.054;2023-02-28T06:16:43;96697.47;;;-2.17;100.00
2397;BME280;1209;48.410;9.054;2023-02-28T06:19:09;96688.34;;;-2.22;100.00
2397;BME280;1209;48.410;9.054;2023-02-28T06:21:35;96702.28;;;-2.27;100.00
2397;BME280;1209;48.410;9.054;2023-02-28T06:24:01;96696.91;;;-2.23;100.00
2397;BME280;1209;48.410;9.054;2023-02-28T06:26:26;96702.03;;;-2.23;100.00
2397;BME280;1209;48.410;9.054;2023-02-28T06:28:52;96704.41;;;-2.19;100.00
2397;BME280;1209;48.410;9.054;2023-02-28T06:31:18;96707.97;;;-2.22;100.00
2397;BME280;1209;48.410;9.054;2023-02-28T06:33:44;96706.88;;;-2.18;100.00
2397;BME280;1209;48.410;9.054;2023-02-28T06:36:12;96710.75;;;-2.11;100.00
2397;BME280;1209;48.410;9.054;2023-02-28T06:38:38;96715.03;;;-2.11;100.00
2397;BME280;1209;48.410;9.054;2023-02-28T06:41:04;96716.44;;;-2.06;100.00
2397;BME280;1209;48.410;9.054;2023-02-28T06:43:33;96713.13;;;-2.08;100.00
2397;BME280;1209;48.410;9.054;2023-02-28T06:46:00;96718.34;;;-2.09;100.00
2397;BME280;1209;48.410;9.054;2023-02-28T06:48:26;96712.03;;;-2.04;100.00
2397;BME280;1209;48.410;9.054;2023-02-28T06:50:52;96719.38;;;-1.98;100.00
2397;BME280;1209;48.410;9.054;2023-02-28T06:53:18;96714.59;;;-2.04;100.00
2397;BME280;1209;48.410;9.054;2023-02-28T06:55:43;96713.25;;;-1.95;100.00
2397;BME280;1209;48.410;9.054;2023-02-28T06:58:09;96715.91;;;-1.97;100.00
2397;BME280;1209;48.410;9.054;2023-02-28T07:00:42;96724.50;;;-1.98;100.00
2397;BME280;1209;48.410;9.054;2023-02-28T07:03:09;96722.50;;;-1.93;100.00
2397;BME280;1209;48.410;9.054;2023-02-28T07:05:35;96717.19;;;-1.90;100.00
2397;BME280;1209;48.410;9.054;2023-02-28T07:08:01;96727.53;;;-1.91;100.00
2397;BME280;1209;48.410;9.054;2023-02-28T07:10:26;96719.84;;;-1.91;100.00
2397;BME280;1209;48.410;9.054;2023-02-28T07:12:52;96719.34;;;-1.82;100.00
2397;BME280;1209;48.410;9.054;2023-02-28T07:15:17;96726.19;;;-1.82;100.00
2397;BME280;1209;48.410;9.054;2023-02-28T07:17:42;96730.41;;;-1.81;100.00
2397;BME280;1209;48.410;9.054;2023-02-28T07:20:08;96725.13;;;-1.78;100.00
2397;BME280;1209;48.410;9.054;2023-02-28T07:22:34;96726.75;;;-1.77;100.00
2397;BME280;1209;48.410;9.054;2023-02-28T07:24:59;96729.41;;;-1.79;100.00
2397;BME280;1209;48.410;9.054;2023-02-28T07:27:24;96733.00;;;-1.67;100.00
2397;BME280;1209;48.410;9.054;2023-02-28T07:29:51;96734.72;;;-1.68;100.00
2397;BME280;1209;48.410;9.054;2023-02-28T07:32:16;96732.34;;;-1.71;100.00
2397;BME280;1209;48.410;9.054;2023-02-28T07:34:41;96736.47;;;-1.68;100.00
2397;BME280;1209;48.410;9.054;2023-02-28T07:37:07;96727.25;;;-1.56;100.00
2397;BME280;1209;48.410;9.054;2023-02-28T07:39:32;96724.44;;;-1.52;100.00
2397;BME280;1209;48.410;9.054;2023-02-28T07:41:57;96722.72;;;-1.37;100.00
2397;BME280;1209;48.410;9.054;2023-02-28T07:44:25;96726.56;;;-1.30;100.00
2397;BME280;1209;48.410;9.054;2023-02-28T07:46:50;96728.03;;;-1.26;100.00
2397;BME280;1209;48.410;9.054;2023-02-28T07:49:15;96731.31;;;-1.38;100.00
2397;BME280;1209;48.410;9.054;2023-02-28T07:51:41;96728.75;;;-1.38;100.00
2397;BME280;1209;48.410;9.054;2023-02-28T07:54:06;96737.09;;;-1.35;100.00
2397;BME280;1209;48.410;9.054;2023-02-28T07:56:32;96737.56;;;-1.28;100.00
2397;BME280;1209;48.410;9.054;2023-02-28T07:58:58;96742.13;;;-1.19;100.00
2397;BME280;1209;48.410;9.054;2023-02-28T08:01:23;96739.47;;;-1.03;100.00
2397;BME280;1209;48.410;9.054;2023-02-28T08:03:48;96739.56;;;-1.05;100.00
2397;BME280;1209;48.410;9.054;2023-02-28T08:06:22;96740.41;;;-0.90;100.00
2397;BME280;1209;48.410;9.054;2023-02-28T08:08:48;96741.31;;;-0.91;100.00
2397;BME280;1209;48.410;9.054;2023-02-28T08:11:14;96746.34;;;-0.89;100.00
2397;BME280;1209;48.410;9.054;2023-02-28T08:13:41;96744.72;;;-0.90;100.00
2397;BME280;1209;48.410;9.054;2023-02-28T08:16:07;96757.25;;;-0.86;100.00
2397;BME280;1209;48.410;9.054;2023-02-28T08:18:32;96759.44;;;-0.80;100.00
2397;BME280;1209;48.410;9.054;2023-02-28T08:20:58;96756.50;;;-0.88;100.00
2397;BME280;1209;48.410;9.054;2023-02-28T08:23:24;96752.50;;;-0.92;100.00
2397;BME280;1209;48.410;9.054;2023-02-28T08:25:55;96757.25;;;-0.86;100.00
2397;BME280;1209;48.410;9.054;2023-02-28T08:28:22;96763.56;;;-0.91;100.00
2397;BME280;1209;48.410;9.054;2023-02-28T08:30:47;96759.63;;;-0.83;100.00
2397;BME280;1209;48.410;9.054;2023-02-28T08:33:12;96767.59;;;-0.87;100.00
2397;BME280;1209;48.410;9.054;2023-02-28T08:35:38;96763.38;;;-0.88;100.00
2397;BME280;1209;48.410;9.054;2023-02-28T08:38:03;96768.97;;;-0.82;100.00
2397;BME280;1209;48.410;9.054;2023-02-28T08:40:28;96761.34;;;-0.69;100.00
2397;BME280;1209;48.410;9.054;2023-02-28T08:42:53;96762.81;;;-0.65;100.00
2397;BME280;1209;48.410;9.054;2023-02-28T08:45:19;96775.72;;;-0.67;100.00
2397;BME280;1209;48.410;9.054;2023-02-28T08:47:44;96776.44;;;-0.65;100.00
2397;BME280;1209;48.410;9.054;2023-02-28T08:50:09;96777.19;;;-0.77;100.00
2397;BME280;1209;48.410;9.054;2023-02-28T08:52:35;96772.06;;;-0.77;100.00
2397;BME280;1209;48.410;9.054;2023-02-28T08:55:00;96776.66;;;-0.82;100.00
2397;BME280;1209;48.410;9.054;2023-02-28T08:57:25;96780.22;;;-0.70;100.00
2397;BME280;1209;48.410;9.054;2023-02-28T08:59:51;96777.72;;;-0.72;100.00
2397;BME280;1209;48.410;9.054;2023-02-28T09:02:17;96781.31;;;-0.74;100.00
2397;BME280;1209;48.410;9.054;2023-02-28T09:04:42;96777.44;;;-0.53;100.00
2397;BME280;1209;48.410;9.054;2023-02-28T09:07:10;96786.22;;;-0.57;100.00
2397;BME280;1209;48.410;9.054;2023-02-28T09:09:36;96784.88;;;-0.63;100.00
2397;BME280;1209;48.410;9.054;2023-02-28T09:12:01;96792.28;;;-0.58;100.00
2397;BME280;1209;48.410;9.054;2023-02-28T09:14:27;96801.34;;;-0.67;100.00
2397;BME280;1209;48.410;9.054;2023-02-28T09:16:52;96793.28;;;-0.60;100.00
2397;BME280;1209;48.410;9.054;2023-02-28T09:19:17;96796.88;;;-0.63;100.00
2397;BME280;1209;48.410;9.054;2023-02-28T09:21:43;96794.03;;;-0.44;100.00
2397;BME280;1209;48.410;9.054;2023-02-28T09:24:08;96792.19;;;-0.42;100.00
2397;BME280;1209;48.410;9.054;2023-02-28T09:26:33;96801.91;;;-0.47;100.00
2397;BME280;1209;48.410;9.054;2023-02-28T09:28:59;96798.59;;;-0.35;100.00
2397;BME280;1209;48.410;9.054;2023-02-28T09:31:27;96794.84;;;-0.44;100.00
2397;BME280;1209;48.410;9.054;2023-02-28T09:33:54;96794.66;;;-0.41;100.00
2397;BME280;1209;48.410;9.054;2023-02-28T09:36:21;96797.41;;;-0.44;100.00
2397;BME280;1209;48.410;9.054;2023-02-28T09:38:47;96801.25;;;-0.37;100.00
2397;BME280;1209;48.410;9.054;2023-02-28T09:41:16;96803.53;;;-0.32;100.00
2397;BME280;1209;48.410;9.054;2023-02-28T09:44:02;96807.69;;;-0.44;100.00
2397;BME280;1209;48.410;9.054;2023-02-28T09:46:33;96816.97;;;-0.14;100.00
2397;BME280;1209;48.410;9.054;2023-02-28T09:49:05;96810.75;;;-0.24;100.00
2397;BME280;1209;48.410;9.054;2023-02-28T09:51:45;96816.25;;;-0.30;100.00
2397;BME280;1209;48.410;9.054;2023-02-28T09:54:24;96818.00;;;-0.31;100.00
2397;BME280;1209;48.410;9.054;2023-02-28T09:56:57;96819.34;;;-0.11;100.00
2397;BME280;1209;48.410;9.054;2023-02-28T10:02:57;96820.88;;;-0.09;100.00
2397;BME280;1209;48.410;9.054;2023-02-28T10:05:29;96819.66;;;-0.03;100.00
2397;BME280;1209;48.410;9.054;2023-02-28T10:10:37;96818.03;;;-0.04;100.00
2397;BME280;1209;48.410;9.054;2023-02-28T10:13:15;96809.88;;;0.04;100.00
2397;BME280;1209;48.410;9.054;2023-02-28T10:15:42;96822.22;;;0.11;100.00
2397;BME280;1209;48.410;9.054;2023-02-28T10:18:13;96821.94;;;0.16;100.00
2397;BME280;1209;48.410;9.054;2023-02-28T10:20:40;96821.19;;;0.41;100.00
2397;BME280;1209;48.410;9.054;2023-02-28T10:23:16;96826.28;;;0.55;100.00
2397;BME280;1209;48.410;9.054;2023-02-28T10:25:45;96830.22;;;0.73;100.00
2397;BME280;1209;48.410;9.054;2023-02-28T10:28:16;96827.84;;;0.70;100.00
2397;BME280;1209;48.410;9.054;2023-02-28T10:30:46;96825.78;;;0.62;100.00
2397;BME280;1209;48.410;9.054;2023-02-28T10:33:24;96820.88;;;0.45;100.00
2397;BME280;1209;48.410;9.054;2023-02-28T10:35:51;96820.22;;;0.56;100.00
2397;BME280;1209;48.410;9.054;2023-02-28T10:38:37;96828.28;;;0.77;100.00
2397;BME280;1209;48.410;9.054;2023-02-28T10:41:08;96821.13;;;0.55;100.00
2397;BME280;1209;48.410;9.054;2023-02-28T10:43:35;96829.56;;;0.57;100.00
2397;BME280;1209;48.410;9.054;2023-02-28T10:51:08;96826.69;;;0.61;100.00
2397;BME280;1209;48.410;9.054;2023-02-28T10:53:39;96831.16;;;0.85;100.00
2397;BME280;1209;48.410;9.054;2023-02-28T10:59:01;96829.78;;;0.67;100.00
2397;BME280;1209;48.410;9.054;2023-02-28T11:01:37;96833.91;;;0.69;100.00
2397;BME280;1209;48.410;9.054;2023-02-28T11:07:22;96831.66;;;0.77;100.00
2397;BME280;1209;48.410;9.054;2023-02-28T11:09:51;96831.00;;;1.13;100.00
2397;BME280;1209;48.410;9.054;2023-02-28T11:12:24;96841.25;;;1.39;100.00
2397;BME280;1209;48.410;9.054;2023-02-28T11:14:57;96843.94;;;1.63;100.00
2397;BME280;1209;48.410;9.054;2023-02-28T11:17:28;96840.03;;;1.32;100.00
2397;BME280;1209;48.410;9.054;2023-02-28T11:19:58;96840.53;;;1.37;100.00
2397;BME280;1209;48.410;9.054;2023-02-28T11:22:27;96838.91;;;1.10;100.00
2397;BME280;1209;48.410;9.054;2023-02-28T11:24:55;96845.69;;;1.37;100.00
2397;BME280;1209;48.410;9.054;2023-02-28T11:27:42;96840.16;;;1.05;100.00
2397;BME280;1209;48.410;9.054;2023-02-28T11:30:37;96847.97;;;1.16;100.00
2397;BME280;1209;48.410;9.054;2023-02-28T11:33:48;96843.22;;;1.35;100.00
2397;BME280;1209;48.410;9.054;2023-02-28T11:36:24;96847.66;;;1.46;100.00
2397;BME280;1209;48.410;9.054;2023-02-28T11:38:50;96847.53;;;1.35;100.00
2397;BME280;1209;48.410;9.054;2023-02-28T11:46:56;96827.38;;;1.54;100.00
2397;BME280;1209;48.410;9.054;2023-02-28T11:52:39;96833.44;;;1.53;100.00
2397;BME280;1209;48.410;9.054;2023-02-28T11:55:32;96825.63;;;1.42;100.00
2397;BME280;1209;48.410;9.054;2023-02-28T12:08:51;96836.19;;;1.75;100.00
2397;BME280;1209;48.410;9.054;2023-02-28T12:16:37;96836.97;;;1.88;100.00
2397;BME280;1209;48.410;9.054;2023-02-28T12:19:16;96832.41;;;2.05;100.00
2397;BME280;1209;48.410;9.054;2023-02-28T12:22:00;96825.19;;;2.10;100.00
2397;BME280;1209;48.410;9.054;2023-02-28T12:27:21;96824.47;;;2.08;100.00
2397;BME280;1209;48.410;9.054;2023-02-28T12:29:52;96809.13;;;2.30;100.00
2397;BME280;1209;48.410;9.054;2023-02-28T12:32:30;96805.72;;;2.30;99.34
2397;BME280;1209;48.410;9.054;2023-02-28T12:37:37;96818.13;;;2.25;100.00
2397;BME280;1209;48.410;9.054;2023-02-28T12:40:11;96813.00;;;2.36;99.97
2397;BME280;1209;48.410;9.054;2023-02-28T12:42:50;96814.16;;;2.32;100.00
2397;BME280;1209;48.410;9.054;2023-02-28T12:45:19;96813.56;;;2.28;98.60
2397;BME280;1209;48.410;9.054;2023-02-28T12:47:50;96804.97;;;2.40;100.00
2397;BME280;1209;48.410;9.054;2023-02-28T12:50:17;96804.28;;;2.38;99.57
2397;BME280;1209;48.410;9.054;2023-02-28T12:53:02;96802.16;;;2.78;99.58
2397;BME280;1209;48.410;9.054;2023-02-28T12:55:42;96800.13;;;3.17;95.89
2397;BME280;1209;48.410;9.054;2023-02-28T12:58:20;96789.22;;;3.02;94.29
2397;BME280;1209;48.410;9.054;2023-02-28T13:07:07;96784.81;;;3.38;95.34
2397;BME280;1209;48.410;9.054;2023-02-28T13:09:37;96787.59;;;3.68;94.94
2397;BME280;1209;48.410;9.054;2023-02-28T13:12:12;96777.22;;;4.02;95.96
2397;BME280;1209;48.410;9.054;2023-02-28T13:14:38;96779.44;;;4.06;95.28
2397;BME280;1209;48.410;9.054;2023-02-28T13:19:34;96781.16;;;3.63;96.76
2397;BME280;1209;48.410;9.054;2023-02-28T13:22:01;96779.25;;;3.76;93.13
2397;BME280;1209;48.410;9.054;2023-02-28T13:29:41;96765.88;;;3.71;92.47
2397;BME280;1209;48.410;9.054;2023-02-28T13:34:39;96766.28;;;4.09;95.05
2397;BME280;1209;48.410;9.054;2023-02-28T13:42:32;96771.84;;;3.94;92.27
2397;BME280;1209;48.410;9.054;2023-02-28T13:47:32;96766.19;;;4.00;87.34
2397;BME280;1209;48.410;9.054;2023-02-28T13:58:27;96768.84;;;4.09;89.68
2397;BME280;1209;48.410;9.054;2023-02-28T14:04:22;96776.44;;;4.33;89.97
2397;BME280;1209;48.410;9.054;2023-02-28T14:06:47;96765.38;;;4.31;86.00
2397;BME280;1209;48.410;9.054;2023-02-28T14:09:30;96766.34;;;4.30;87.06
2397;BME280;1209;48.410;9.054;2023-02-28T14:11:58;96767.75;;;4.23;87.34
2397;BME280;1209;48.410;9.054;2023-02-28T14:17:14;96768.56;;;4.56;86.24
2397;BME280;1209;48.410;9.054;2023-02-28T14:19:43;96763.34;;;4.88;88.74
2397;BME280;1209;48.410;9.054;2023-02-28T14:25:14;96766.13;;;4.75;85.25
2397;BME280;1209;48.410;9.054;2023-02-28T14:28:09;96771.75;;;4.80;89.00
2397;BME280;1209;48.410;9.054;2023-02-28T14:31:07;96774.84;;;4.74;87.15
2397;BME280;1209;48.410;9.054;2023-02-28T14:36:30;96770.16;;;4.89;86.56
2397;BME280;1209;48.410;9.054;2023-02-28T14:39:00;96766.50;;;4.91;86.90
2397;BME280;1209;48.410;9.054;2023-02-28T14:41:38;96768.00;;;5.15;85.23
2397;BME280;1209;48.410;9.054;2023-02-28T14:44:30;96764.63;;;4.93;82.23
2397;BME280;1209;48.410;9.054;2023-02-28T14:46:58;96766.13;;;4.96;82.08
2397;BME280;1209;48.410;9.054;2023-02-28T14:49:31;96772.88;;;4.87;83.82
2397;BME280;1209;48.410;9.054;2023-02-28T14:54:51;96773.56;;;4.89;85.11
2397;BME280;1209;48.410;9.054;2023-02-28T14:57:32;96772.69;;;5.00;85.81
2397;BME280;1209;48.410;9.054;2023-02-28T15:02:25;96770.59;;;4.94;82.42
2397;BME280;1209;48.410;9.054;2023-02-28T15:04:56;96768.38;;;5.10;84.10
2397;BME280;1209;48.410;9.054;2023-02-28T15:07:22;96775.72;;;4.84;81.72
2397;BME280;1209;48.410;9.054;2023-02-28T15:10:19;96775.72;;;5.05;84.16
2397;BME280;1209;48.410;9.054;2023-02-28T15:12:57;96775.22;;;4.90;81.18
2397;BME280;1209;48.410;9.054;2023-02-28T15:15:27;96776.53;;;4.85;81.53
2397;BME280;1209;48.410;9.054;2023-02-28T15:17:59;96778.81;;;4.99;81.93
2397;BME280;1209;48.410;9.054;2023-02-28T15:20:26;96778.94;;;4.97;80.17
2397;BME280;1209;48.410;9.054;2023-02-28T15:22:55;96779.84;;;5.17;79.98
2397;BME280;1209;48.410;9.054;2023-02-28T15:25:22;96776.00;;;5.12;77.81
2397;BME280;1209;48.410;9.054;2023-02-28T15:27:53;96780.50;;;5.10;81.97
2397;BME280;1209;48.410;9.054;2023-02-28T15:30:27;96771.59;;;5.23;80.43
2397;BME280;1209;48.410;9.054;2023-02-28T15:35:31;96787.00;;;5.55;77.69
2397;BME280;1209;48.410;9.054;2023-02-28T15:38:02;96781.88;;;5.14;77.36
2397;BME280;1209;48.410;9.054;2023-02-28T15:40:35;96785.13;;;4.85;77.44
2397;BME280;1209;48.410;9.054;2023-02-28T15:45:59;96778.41;;;5.03;79.13